sensor_id;sensor_type;location;lat;lon;timestamp;temperature;humidity
65876;HTU21D;52657;51.128;5.938;2022-12-26T00:00:57;14.20;79.48
65876;HTU21D;52657;51.128;5.938;2022-12-26T00:03:24;14.18;79.46
65876;HTU21D;52657;51.128;5.938;2022-12-26T00:05:49;14.20;79.29
65876;HTU21D;52657;51.128;5.938;2022-12-26T00:08:15;14.22;79.01
65876;HTU21D;52657;51.128;5.938;2022-12-26T00:10:41;14.15;78.94
65876;HTU21D;52657;51.128;5.938;2022-12-26T00:13:06;14.14;78.86
65876;HTU21D;52657;51.128;5.938;2022-12-26T00:15:32;14.21;78.52
65876;HTU21D;52657;51.128;5.938;2022-12-26T00:17:58;14.18;78.53
65876;HTU21D;52657;51.128;5.938;2022-12-26T00:20:24;14.18;78.42
65876;HTU21D;52657;51.128;5.938;2022-12-26T00:22:49;14.18;78.30
65876;HTU21D;52657;51.128;5.938;2022-12-26T00:25:15;14.18;78.30
65876;HTU21D;52657;51.128;5.938;2022-12-26T00:27:41;14.17;78.15
65876;HTU21D;52657;51.128;5.938;2022-12-26T00:30:07;14.14;78.11
65876;HTU21D;52657;51.128;5.938;2022-12-26T00:32:33;14.18;78.01
65876;HTU21D;52657;51.128;5.938;2022-12-26T00:34:59;14.11;78.06
65876;HTU21D;52657;51.128;5.938;2022-12-26T00:37:25;14.08;78.16
65876;HTU21D;52657;51.128;5.938;2022-12-26T00:39:50;14.06;78.21
65876;HTU21D;52657;51.128;5.938;2022-12-26T00:42:16;14.07;78.22
65876;HTU21D;52657;51.128;5.938;2022-12-26T00:44:42;14.06;78.11
65876;HTU21D;52657;51.128;5.938;2022-12-26T00:47:07;14.06;78.40
65876;HTU21D;52657;51.128;5.938;2022-12-26T00:49:33;14.07;78.40
65876;HTU21D;52657;51.128;5.938;2022-12-26T00:51:59;14.11;78.34
65876;HTU21D;52657;51.128;5.938;2022-12-26T00:54:24;14.11;78.21
65876;HTU21D;52657;51.128;5.938;2022-12-26T00:56:50;14.10;78.21
65876;HTU21D;52657;51.128;5.938;2022-12-26T00:59:16;14.13;78.19
65876;HTU21D;52657;51.128;5.938;2022-12-26T01:01:41;14.13;78.21
65876;HTU21D;52657;51.128;5.938;2022-12-26T01:04:07;14.17;78.21
65876;HTU21D;52657;51.128;5.938;2022-12-26T01:06:33;14.19;78.05
65876;HTU21D;52657;51.128;5.938;2022-12-26T01:08:58;14.18;77.96
65876;HTU21D;52657;51.128;5.938;2022-12-26T01:11:25;14.13;78.11
65876;HTU21D;52657;51.128;5.938;2022-12-26T01:14:13;14.10;78.18
65876;HTU21D;52657;51.128;5.938;2022-12-26T01:16:41;14.14;78.19
65876;HTU21D;52657;51.128;5.938;2022-12-26T01:19:09;14.12;78.08
65876;HTU21D;52657;51.128;5.938;2022-12-26T01:21:35;14.09;78.18
65876;HTU21D;52657;51.128;5.938;2022-12-26T01:24:03;14.07;78.33
65876;HTU21D;52657;51.128;5.938;2022-12-26T01:26:29;14.04;78.50
65876;HTU21D;52657;51.128;5.938;2022-12-26T01:28:54;14.01;78.72
65876;HTU21D;52657;51.128;5.938;2022-12-26T01:31:21;14.01;78.78
65876;HTU21D;52657;51.128;5.938;2022-12-26T01:33:47;14.01;78.90
65876;HTU21D;52657;51.128;5.938;2022-12-26T01:36:14;14.03;78.99
65876;HTU21D;52657;51.128;5.938;2022-12-26T01:38:40;14.05;78.98
65876;HTU21D;52657;51.128;5.938;2022-12-26T01:41:06;14.05;79.11
65876;HTU21D;52657;51.128;5.938;2022-12-26T01:43:52;14.08;79.01
65876;HTU21D;52657;51.128;5.938;2022-12-26T01:46:37;14.12;78.95
65876;HTU21D;52657;51.128;5.938;2022-12-26T01:49:18;14.14;78.91
65876;HTU21D;52657;51.128;5.938;2022-12-26T01:51:55;14.12;78.87
65876;HTU21D;52657;51.128;5.938;2022-12-26T01:54:24;14.13;78.92
65876;HTU21D;52657;51.128;5.938;2022-12-26T01:56:51;14.18;78.75
65876;HTU21D;52657;51.128;5.938;2022-12-26T01:59:22;14.19;78.53
65876;HTU21D;52657;51.128;5.938;2022-12-26T02:01:52;14.18;78.47
65876;HTU21D;52657;51.128;5.938;2022-12-26T02:04:26;14.15;78.48
65876;HTU21D;52657;51.128;5.938;2022-12-26T02:07:12;14.13;78.39
65876;HTU21D;52657;51.128;5.938;2022-12-26T02:09:38;14.13;78.30
65876;HTU21D;52657;51.128;5.938;2022-12-26T02:12:16;14.14;78.31
65876;HTU21D;52657;51.128;5.938;2022-12-26T02:14:45;14.14;78.09
65876;HTU21D;52657;51.128;5.938;2022-12-26T02:17:11;14.17;77.99
65876;HTU21D;52657;51.128;5.938;2022-12-26T02:39:57;13.91;78.05
65876;HTU21D;52657;51.128;5.938;2022-12-26T02:42:47;13.90;77.99
65876;HTU21D;52657;51.128;5.938;2022-12-26T02:45:35;13.88;77.82
65876;HTU21D;52657;51.128;5.938;2022-12-26T02:48:34;13.82;77.69
65876;HTU21D;52657;51.128;5.938;2022-12-26T02:54:51;13.81;77.63
65876;HTU21D;52657;51.128;5.938;2022-12-26T02:57:29;13.80;77.66
65876;HTU21D;52657;51.128;5.938;2022-12-26T03:00:18;13.79;77.67
65876;HTU21D;52657;51.128;5.938;2022-12-26T03:03:19;13.77;77.63
65876;HTU21D;52657;51.128;5.938;2022-12-26T03:06:14;13.73;77.55
65876;HTU21D;52657;51.128;5.938;2022-12-26T03:09:06;13.71;77.46
65876;HTU21D;52657;51.128;5.938;2022-12-26T03:11:57;13.67;77.33
65876;HTU21D;52657;51.128;5.938;2022-12-26T03:14:57;13.66;77.22
65876;HTU21D;52657;51.128;5.938;2022-12-26T03:17:33;13.60;77.08
65876;HTU21D;52657;51.128;5.938;2022-12-26T03:20:10;13.55;77.05
65876;HTU21D;52657;51.128;5.938;2022-12-26T03:22:47;13.54;76.96
65876;HTU21D;52657;51.128;5.938;2022-12-26T03:26:06;13.51;76.86
65876;HTU21D;52657;51.128;5.938;2022-12-26T03:28:30;13.49;76.66
65876;HTU21D;52657;51.128;5.938;2022-12-26T03:31:00;13.43;76.78
65876;HTU21D;52657;51.128;5.938;2022-12-26T03:33:34;13.41;76.76
65876;HTU21D;52657;51.128;5.938;2022-12-26T03:36:48;13.35;76.79
65876;HTU21D;52657;51.128;5.938;2022-12-26T03:55:16;13.27;76.82
65876;HTU21D;52657;51.128;5.938;2022-12-26T03:58:27;13.29;76.83
65876;HTU21D;52657;51.128;5.938;2022-12-26T04:01:19;13.29;76.83
65876;HTU21D;52657;51.128;5.938;2022-12-26T04:04:10;13.24;76.89
65876;HTU21D;52657;51.128;5.938;2022-12-26T04:07:10;13.22;77.04
65876;HTU21D;52657;51.128;5.938;2022-12-26T04:10:06;13.20;77.19
65876;HTU21D;52657;51.128;5.938;2022-12-26T04:12:54;13.20;77.26
65876;HTU21D;52657;51.128;5.938;2022-12-26T04:15:46;13.26;77.11
65876;HTU21D;52657;51.128;5.938;2022-12-26T04:19:09;13.24;77.24
65876;HTU21D;52657;51.128;5.938;2022-12-26T04:22:21;13.23;77.29
65876;HTU21D;52657;51.128;5.938;2022-12-26T04:25:16;13.23;77.41
65876;HTU21D;52657;51.128;5.938;2022-12-26T04:28:02;13.30;77.35
65876;HTU21D;52657;51.128;5.938;2022-12-26T04:30:59;13.33;77.27
65876;HTU21D;52657;51.128;5.938;2022-12-26T04:34:00;13.33;77.32
65876;HTU21D;52657;51.128;5.938;2022-12-26T04:36:54;13.29;77.53
65876;HTU21D;52657;51.128;5.938;2022-12-26T04:39:44;13.33;77.56
65876;HTU21D;52657;51.128;5.938;2022-12-26T04:42:32;13.25;77.76
65876;HTU21D;52657;51.128;5.938;2022-12-26T04:45:20;13.25;77.90
65876;HTU21D;52657;51.128;5.938;2022-12-26T04:47:46;13.24;77.99
65876;HTU21D;52657;51.128;5.938;2022-12-26T04:50:32;13.20;78.11
65876;HTU21D;52657;51.128;5.938;2022-12-26T04:52:57;13.20;78.15
65876;HTU21D;52657;51.128;5.938;2022-12-26T04:55:28;13.22;78.13
65876;HTU21D;52657;51.128;5.938;2022-12-26T04:57:55;13.26;77.85
65876;HTU21D;52657;51.128;5.938;2022-12-26T05:00:23;13.22;77.98
65876;HTU21D;52657;51.128;5.938;2022-12-26T05:02:50;13.20;78.05
65876;HTU21D;52657;51.128;5.938;2022-12-26T05:05:42;13.21;78.03
65876;HTU21D;52657;51.128;5.938;2022-12-26T05:08:43;13.19;78.08
65876;HTU21D;52657;51.128;5.938;2022-12-26T05:11:32;13.17;78.09
65876;HTU21D;52657;51.128;5.938;2022-12-26T05:13:59;13.19;78.18
65876;HTU21D;52657;51.128;5.938;2022-12-26T05:16:26;13.22;78.09
65876;HTU21D;52657;51.128;5.938;2022-12-26T05:19:13;13.23;77.97
65876;HTU21D;52657;51.128;5.938;2022-12-26T05:21:58;13.23;78.00
65876;HTU21D;52657;51.128;5.938;2022-12-26T05:24:45;13.25;77.93
65876;HTU21D;52657;51.128;5.938;2022-12-26T05:27:36;13.23;78.04
65876;HTU21D;52657;51.128;5.938;2022-12-26T05:30:21;13.25;77.95
65876;HTU21D;52657;51.128;5.938;2022-12-26T05:32:47;13.27;77.92
65876;HTU21D;52657;51.128;5.938;2022-12-26T05:35:32;13.30;77.82
65876;HTU21D;52657;51.128;5.938;2022-12-26T05:38:00;13.33;77.69
65876;HTU21D;52657;51.128;5.938;2022-12-26T05:40:26;13.31;77.70
65876;HTU21D;52657;51.128;5.938;2022-12-26T05:42:52;13.32;77.67
65876;HTU21D;52657;51.128;5.938;2022-12-26T05:45:18;13.33;77.56
65876;HTU21D;52657;51.128;5.938;2022-12-26T05:47:44;13.32;77.53
65876;HTU21D;52657;51.128;5.938;2022-12-26T05:50:09;13.29;77.63
65876;HTU21D;52657;51.128;5.938;2022-12-26T05:52:35;13.31;77.63
65876;HTU21D;52657;51.128;5.938;2022-12-26T05:55:01;13.27;77.71
65876;HTU21D;52657;51.128;5.938;2022-12-26T05:57:29;13.25;77.80
65876;HTU21D;52657;51.128;5.938;2022-12-26T05:59:54;13.26;77.76
65876;HTU21D;52657;51.128;5.938;2022-12-26T06:02:20;13.25;77.69
65876;HTU21D;52657;51.128;5.938;2022-12-26T06:04:46;13.26;77.71
65876;HTU21D;52657;51.128;5.938;2022-12-26T06:07:14;13.23;77.74
65876;HTU21D;52657;51.128;5.938;2022-12-26T06:09:40;13.23;77.85
65876;HTU21D;52657;51.128;5.938;2022-12-26T06:12:05;13.24;77.77
65876;HTU21D;52657;51.128;5.938;2022-12-26T06:14:31;13.25;77.76
65876;HTU21D;52657;51.128;5.938;2022-12-26T06:16:57;13.25;77.72
65876;HTU21D;52657;51.128;5.938;2022-12-26T06:19:23;13.27;77.65
65876;HTU21D;52657;51.128;5.938;2022-12-26T06:21:48;13.26;77.56
65876;HTU21D;52657;51.128;5.938;2022-12-26T06:24:14;13.27;77.44
65876;HTU21D;52657;51.128;5.938;2022-12-26T06:26:40;13.17;77.87
65876;HTU21D;52657;51.128;5.938;2022-12-26T06:29:06;13.11;78.17
65876;HTU21D;52657;51.128;5.938;2022-12-26T06:31:32;13.09;78.25
65876;HTU21D;52657;51.128;5.938;2022-12-26T06:33:58;13.07;78.33
65876;HTU21D;52657;51.128;5.938;2022-12-26T06:36:28;13.08;78.29
65876;HTU21D;52657;51.128;5.938;2022-12-26T06:38:55;13.07;78.24
65876;HTU21D;52657;51.128;5.938;2022-12-26T06:41:23;13.08;78.21
65876;HTU21D;52657;51.128;5.938;2022-12-26T06:43:50;13.09;78.07
65876;HTU21D;52657;51.128;5.938;2022-12-26T06:46:19;13.11;77.88
65876;HTU21D;52657;51.128;5.938;2022-12-26T06:48:46;13.08;77.82
65876;HTU21D;52657;51.128;5.938;2022-12-26T06:51:15;13.08;77.75
65876;HTU21D;52657;51.128;5.938;2022-12-26T06:53:42;13.00;77.88
65876;HTU21D;52657;51.128;5.938;2022-12-26T06:56:16;13.00;78.01
65876;HTU21D;52657;51.128;5.938;2022-12-26T06:58:43;12.97;78.01
65876;HTU21D;52657;51.128;5.938;2022-12-26T07:01:18;12.97;78.00
65876;HTU21D;52657;51.128;5.938;2022-12-26T07:03:44;12.95;78.15
65876;HTU21D;52657;51.128;5.938;2022-12-26T07:08:42;13.01;78.02
65876;HTU21D;52657;51.128;5.938;2022-12-26T07:11:17;13.02;77.94
65876;HTU21D;52657;51.128;5.938;2022-12-26T07:13:43;13.06;77.85
65876;HTU21D;52657;51.128;5.938;2022-12-26T07:16:11;13.07;77.63
65876;HTU21D;52657;51.128;5.938;2022-12-26T07:18:37;13.09;77.47
65876;HTU21D;52657;51.128;5.938;2022-12-26T07:21:05;13.10;77.25
65876;HTU21D;52657;51.128;5.938;2022-12-26T07:23:30;13.10;77.17
65876;HTU21D;52657;51.128;5.938;2022-12-26T07:25:56;13.08;77.13
65876;HTU21D;52657;51.128;5.938;2022-12-26T07:28:22;13.07;77.04
65876;HTU21D;52657;51.128;5.938;2022-12-26T07:30:49;13.10;76.90
65876;HTU21D;52657;51.128;5.938;2022-12-26T07:33:15;13.09;76.73
65876;HTU21D;52657;51.128;5.938;2022-12-26T07:35:42;13.11;76.72
65876;HTU21D;52657;51.128;5.938;2022-12-26T07:38:09;13.14;76.56
65876;HTU21D;52657;51.128;5.938;2022-12-26T07:40:34;13.14;76.47
65876;HTU21D;52657;51.128;5.938;2022-12-26T07:43:00;13.12;76.41
65876;HTU21D;52657;51.128;5.938;2022-12-26T07:45:26;13.09;76.39
65876;HTU21D;52657;51.128;5.938;2022-12-26T07:47:53;13.09;76.34
65876;HTU21D;52657;51.128;5.938;2022-12-26T07:50:19;13.10;76.21
65876;HTU21D;52657;51.128;5.938;2022-12-26T07:52:45;13.09;76.10
65876;HTU21D;52657;51.128;5.938;2022-12-26T07:55:11;13.06;76.01
65876;HTU21D;52657;51.128;5.938;2022-12-26T07:57:37;13.07;76.02
65876;HTU21D;52657;51.128;5.938;2022-12-26T08:00:03;13.07;75.92
65876;HTU21D;52657;51.128;5.938;2022-12-26T08:02:37;13.06;75.97
65876;HTU21D;52657;51.128;5.938;2022-12-26T08:05:03;13.03;75.98
65876;HTU21D;52657;51.128;5.938;2022-12-26T08:07:29;13.01;75.83
65876;HTU21D;52657;51.128;5.938;2022-12-26T08:09:54;12.99;75.84
65876;HTU21D;52657;51.128;5.938;2022-12-26T08:12:20;12.97;75.95
65876;HTU21D;52657;51.128;5.938;2022-12-26T08:14:50;13.00;75.86
65876;HTU21D;52657;51.128;5.938;2022-12-26T08:17:16;13.02;75.78
65876;HTU21D;52657;51.128;5.938;2022-12-26T08:19:42;13.04;75.80
65876;HTU21D;52657;51.128;5.938;2022-12-26T08:22:08;13.09;75.65
65876;HTU21D;52657;51.128;5.938;2022-12-26T08:24:33;13.11;75.54
65876;HTU21D;52657;51.128;5.938;2022-12-26T08:26:59;13.15;75.43
65876;HTU21D;52657;51.128;5.938;2022-12-26T08:29:25;13.14;75.42
65876;HTU21D;52657;51.128;5.938;2022-12-26T08:31:51;13.11;75.55
65876;HTU21D;52657;51.128;5.938;2022-12-26T08:34:19;13.10;75.59
65876;HTU21D;52657;51.128;5.938;2022-12-26T08:36:44;13.10;75.54
65876;HTU21D;52657;51.128;5.938;2022-12-26T08:39:11;13.14;75.33
65876;HTU21D;52657;51.128;5.938;2022-12-26T08:41:36;13.09;75.38
65876;HTU21D;52657;51.128;5.938;2022-12-26T08:44:02;13.08;75.37
65876;HTU21D;52657;51.128;5.938;2022-12-26T08:46:28;13.09;74.94
65876;HTU21D;52657;51.128;5.938;2022-12-26T08:48:53;13.07;75.20
65876;HTU21D;52657;51.128;5.938;2022-12-26T08:51:22;13.03;75.21
65876;HTU21D;52657;51.128;5.938;2022-12-26T08:53:49;13.03;75.15
65876;HTU21D;52657;51.128;5.938;2022-12-26T08:56:18;13.01;75.15
65876;HTU21D;52657;51.128;5.938;2022-12-26T08:58:45;13.02;75.08
65876;HTU21D;52657;51.128;5.938;2022-12-26T09:01:17;13.07;74.96
65876;HTU21D;52657;51.128;5.938;2022-12-26T09:03:46;13.12;74.54
65876;HTU21D;52657;51.128;5.938;2022-12-26T09:06:14;13.12;74.24
65876;HTU21D;52657;51.128;5.938;2022-12-26T09:08:41;13.10;74.25
65876;HTU21D;52657;51.128;5.938;2022-12-26T09:11:16;13.07;74.26
65876;HTU21D;52657;51.128;5.938;2022-12-26T09:13:43;13.10;74.30
65876;HTU21D;52657;51.128;5.938;2022-12-26T09:16:15;13.12;74.25
65876;HTU21D;52657;51.128;5.938;2022-12-26T09:18:42;13.17;74.02
65876;HTU21D;52657;51.128;5.938;2022-12-26T09:21:10;13.21;74.10
65876;HTU21D;52657;51.128;5.938;2022-12-26T09:23:37;13.20;73.95
65876;HTU21D;52657;51.128;5.938;2022-12-26T09:26:13;13.22;73.92
65876;HTU21D;52657;51.128;5.938;2022-12-26T09:28:39;13.24;73.69
65876;HTU21D;52657;51.128;5.938;2022-12-26T09:31:12;13.31;73.44
65876;HTU21D;52657;51.128;5.938;2022-12-26T09:33:39;13.31;73.20
65876;HTU21D;52657;51.128;5.938;2022-12-26T09:36:10;13.34;73.15
65876;HTU21D;52657;51.128;5.938;2022-12-26T09:38:36;13.34;72.95
65876;HTU21D;52657;51.128;5.938;2022-12-26T09:44:15;13.32;72.64
65876;HTU21D;52657;51.128;5.938;2022-12-26T09:52:19;13.49;71.35
65876;HTU21D;52657;51.128;5.938;2022-12-26T09:54:57;13.56;72.13
65876;HTU21D;52657;51.128;5.938;2022-12-26T09:57:46;13.62;71.63
65876;HTU21D;52657;51.128;5.938;2022-12-26T10:00:19;13.60;71.47
65876;HTU21D;52657;51.128;5.938;2022-12-26T10:02:51;13.52;71.26
65876;HTU21D;52657;51.128;5.938;2022-12-26T10:05:22;13.61;71.80
65876;HTU21D;52657;51.128;5.938;2022-12-26T10:08:00;13.64;71.58
65876;HTU21D;52657;51.128;5.938;2022-12-26T10:10:46;13.66;71.58
65876;HTU21D;52657;51.128;5.938;2022-12-26T10:16:19;14.09;70.18
65876;HTU21D;52657;51.128;5.938;2022-12-26T10:22:05;14.09;69.73
65876;HTU21D;52657;51.128;5.938;2022-12-26T10:24:37;14.05;69.58
65876;HTU21D;52657;51.128;5.938;2022-12-26T10:27:11;14.01;69.76
65876;HTU21D;52657;51.128;5.938;2022-12-26T10:29:41;14.00;69.72
65876;HTU21D;52657;51.128;5.938;2022-12-26T10:32:14;14.05;69.74
65876;HTU21D;52657;51.128;5.938;2022-12-26T10:34:47;14.12;69.87
65876;HTU21D;52657;51.128;5.938;2022-12-26T10:37:33;14.18;69.84
65876;HTU21D;52657;51.128;5.938;2022-12-26T10:40:17;14.27;69.60
65876;HTU21D;52657;51.128;5.938;2022-12-26T10:42:51;14.27;69.14
65876;HTU21D;52657;51.128;5.938;2022-12-26T10:48:01;14.22;69.03
65876;HTU21D;52657;51.128;5.938;2022-12-26T10:50:30;14.25;69.10
65876;HTU21D;52657;51.128;5.938;2022-12-26T10:52:59;14.23;69.08
65876;HTU21D;52657;51.128;5.938;2022-12-26T10:55:28;14.23;68.86
65876;HTU21D;52657;51.128;5.938;2022-12-26T10:58:01;14.14;69.33
65876;HTU21D;52657;51.128;5.938;2022-12-26T11:00:29;14.11;69.60
65876;HTU21D;52657;51.128;5.938;2022-12-26T11:05:27;13.96;70.50
65876;HTU21D;52657;51.128;5.938;2022-12-26T11:10:39;13.81;71.97
65876;HTU21D;52657;51.128;5.938;2022-12-26T11:13:19;13.79;72.38
65876;HTU21D;52657;51.128;5.938;2022-12-26T11:15:48;13.78;72.75
65876;HTU21D;52657;51.128;5.938;2022-12-26T11:20:45;13.80;72.97
65876;HTU21D;52657;51.128;5.938;2022-12-26T11:25:59;13.80;72.66
65876;HTU21D;52657;51.128;5.938;2022-12-26T11:28:36;13.77;72.49
65876;HTU21D;52657;51.128;5.938;2022-12-26T11:31:06;13.68;72.25
65876;HTU21D;52657;51.128;5.938;2022-12-26T11:33:40;13.64;72.14
65876;HTU21D;52657;51.128;5.938;2022-12-26T11:44:02;13.50;71.58
65876;HTU21D;52657;51.128;5.938;2022-12-26T11:58:19;13.38;72.42
65876;HTU21D;52657;51.128;5.938;2022-12-26T12:12:07;13.39;72.25
65876;HTU21D;52657;51.128;5.938;2022-12-26T12:23:28;13.44;72.58
65876;HTU21D;52657;51.128;5.938;2022-12-26T12:28:35;13.29;70.10
65876;HTU21D;52657;51.128;5.938;2022-12-26T12:31:34;13.20;68.81
65876;HTU21D;52657;51.128;5.938;2022-12-26T12:39:34;13.23;68.85
65876;HTU21D;52657;51.128;5.938;2022-12-26T12:42:39;13.31;68.88
65876;HTU21D;52657;51.128;5.938;2022-12-26T12:45:27;13.35;68.41
65876;HTU21D;52657;51.128;5.938;2022-12-26T12:53:55;13.44;67.99
65876;HTU21D;52657;51.128;5.938;2022-12-26T12:56:42;13.44;68.01
65876;HTU21D;52657;51.128;5.938;2022-12-26T13:01:57;13.48;68.09
65876;HTU21D;52657;51.128;5.938;2022-12-26T13:04:42;13.48;68.01
65876;HTU21D;52657;51.128;5.938;2022-12-26T13:07:15;13.51;67.95
65876;HTU21D;52657;51.128;5.938;2022-12-26T13:09:49;13.55;67.88
65876;HTU21D;52657;51.128;5.938;2022-12-26T13:12:36;13.58;67.72
65876;HTU21D;52657;51.128;5.938;2022-12-26T13:15:19;13.56;67.69
65876;HTU21D;52657;51.128;5.938;2022-12-26T13:18:36;13.53;67.64
65876;HTU21D;52657;51.128;5.938;2022-12-26T13:20:53;13.53;68.16
65876;HTU21D;52657;51.128;5.938;2022-12-26T13:23:42;13.53;67.81
65876;HTU21D;52657;51.128;5.938;2022-12-26T13:26:36;13.50;67.56
65876;HTU21D;52657;51.128;5.938;2022-12-26T13:29:09;13.54;67.39
65876;HTU21D;52657;51.128;5.938;2022-12-26T13:31:37;13.43;67.27
65876;HTU21D;52657;51.128;5.938;2022-12-26T13:34:09;13.35;66.99
65876;HTU21D;52657;51.128;5.938;2022-12-26T13:36:42;13.32;66.81
65876;HTU21D;52657;51.128;5.938;2022-12-26T13:44:51;13.11;65.86
65876;HTU21D;52657;51.128;5.938;2022-12-26T13:47:35;13.04;65.97
65876;HTU21D;52657;51.128;5.938;2022-12-26T13:58:59;12.96;64.71
65876;HTU21D;52657;51.128;5.938;2022-12-26T14:10:17;12.73;61.96
65876;HTU21D;52657;51.128;5.938;2022-12-26T14:15:55;12.63;61.12
65876;HTU21D;52657;51.128;5.938;2022-12-26T14:22:10;12.46;61.16
65876;HTU21D;52657;51.128;5.938;2022-12-26T14:29:54;12.46;60.41
65876;HTU21D;52657;51.128;5.938;2022-12-26T14:32:58;12.34;61.16
65876;HTU21D;52657;51.128;5.938;2022-12-26T14:38:36;12.28;61.45
65876;HTU21D;52657;51.128;5.938;2022-12-26T14:41:11;12.27;61.50
65876;HTU21D;52657;51.128;5.938;2022-12-26T14:43:56;12.30;61.85
65876;HTU21D;52657;51.128;5.938;2022-12-26T14:54:50;12.23;62.28
65876;HTU21D;52657;51.128;5.938;2022-12-26T15:05:46;11.98;62.05
65876;HTU21D;52657;51.128;5.938;2022-12-26T15:17:06;11.87;62.52
65876;HTU21D;52657;51.128;5.938;2022-12-26T15:23:05;11.77;62.92
65876;HTU21D;52657;51.128;5.938;2022-12-26T15:33:37;11.40;63.30
65876;HTU21D;52657;51.128;5.938;2022-12-26T15:42:04;11.15;63.52
65876;HTU21D;52657;51.128;5.938;2022-12-26T15:53:24;10.68;64.06
65876;HTU21D;52657;51.128;5.938;2022-12-26T15:56:15;10.66;64.19
65876;HTU21D;52657;51.128;5.938;2022-12-26T16:01:55;10.67;63.83
65876;HTU21D;52657;51.128;5.938;2022-12-26T16:04:28;10.68;63.68
65876;HTU21D;52657;51.128;5.938;2022-12-26T16:09:57;10.59;63.76
65876;HTU21D;52657;51.128;5.938;2022-12-26T16:12:24;10.55;63.66
65876;HTU21D;52657;51.128;5.938;2022-12-26T16:17:35;10.49;62.95
65876;HTU21D;52657;51.128;5.938;2022-12-26T16:23:05;10.36;63.16
65876;HTU21D;52657;51.128;5.938;2022-12-26T16:25:31;10.35;63.25
65876;HTU21D;52657;51.128;5.938;2022-12-26T16:27:59;10.33;62.76
65876;HTU21D;52657;51.128;5.938;2022-12-26T16:30:32;10.33;62.89
65876;HTU21D;52657;51.128;5.938;2022-12-26T16:33:01;10.29;62.42
65876;HTU21D;52657;51.128;5.938;2022-12-26T16:35:32;10.22;62.81
65876;HTU21D;52657;51.128;5.938;2022-12-26T16:38:01;10.23;62.64
65876;HTU21D;52657;51.128;5.938;2022-12-26T16:40:30;10.23;62.41
65876;HTU21D;52657;51.128;5.938;2022-12-26T16:43:03;10.20;62.50
65876;HTU21D;52657;51.128;5.938;2022-12-26T16:45:33;10.15;62.38
65876;HTU21D;52657;51.128;5.938;2022-12-26T16:48:00;10.12;62.37
65876;HTU21D;52657;51.128;5.938;2022-12-26T16:50:30;10.06;62.50
65876;HTU21D;52657;51.128;5.938;2022-12-26T16:53:16;10.05;62.31
65876;HTU21D;52657;51.128;5.938;2022-12-26T16:55:45;10.01;62.34
65876;HTU21D;52657;51.128;5.938;2022-12-26T16:58:24;9.96;62.25
65876;HTU21D;52657;51.128;5.938;2022-12-26T17:01:12;9.89;62.24
65876;HTU21D;52657;51.128;5.938;2022-12-26T17:03:58;9.84;62.24
65876;HTU21D;52657;51.128;5.938;2022-12-26T17:09:07;9.76;62.16
65876;HTU21D;52657;51.128;5.938;2022-12-26T17:11:37;9.72;62.31
65876;HTU21D;52657;51.128;5.938;2022-12-26T17:14:16;9.72;62.29
65876;HTU21D;52657;51.128;5.938;2022-12-26T17:16:43;9.67;62.23
65876;HTU21D;52657;51.128;5.938;2022-12-26T17:19:17;9.63;61.96
65876;HTU21D;52657;51.128;5.938;2022-12-26T17:22:08;9.61;61.75
65876;HTU21D;52657;51.128;5.938;2022-12-26T17:24:48;9.59;61.69
65876;HTU21D;52657;51.128;5.938;2022-12-26T17:27:32;9.59;61.75
65876;HTU21D;52657;51.128;5.938;2022-12-26T17:30:00;9.59;61.55
65876;HTU21D;52657;51.128;5.938;2022-12-26T17:32:37;9.57;61.50
65876;HTU21D;52657;51.128;5.938;2022-12-26T17:35:17;9.50;61.30
65876;HTU21D;52657;51.128;5.938;2022-12-26T17:37:45;9.41;61.25
65876;HTU21D;52657;51.128;5.938;2022-12-26T17:43:03;9.32;61.25
65876;HTU21D;52657;51.128;5.938;2022-12-26T17:45:29;9.26;61.57
65876;HTU21D;52657;51.128;5.938;2022-12-26T17:47:56;9.21;61.38
65876;HTU21D;52657;51.128;5.938;2022-12-26T17:50:29;9.18;61.44
65876;HTU21D;52657;51.128;5.938;2022-12-26T17:53:03;9.15;61.30
65876;HTU21D;52657;51.128;5.938;2022-12-26T17:55:29;9.08;61.49
65876;HTU21D;52657;51.128;5.938;2022-12-26T17:57:55;9.08;61.61
65876;HTU21D;52657;51.128;5.938;2022-12-26T18:00:23;9.07;61.65
65876;HTU21D;52657;51.128;5.938;2022-12-26T18:02:49;9.02;61.93
65876;HTU21D;52657;51.128;5.938;2022-12-26T18:05:18;8.98;62.08
65876;HTU21D;52657;51.128;5.938;2022-12-26T18:07:46;8.92;62.26
65876;HTU21D;52657;51.128;5.938;2022-12-26T18:10:34;8.80;62.64
65876;HTU21D;52657;51.128;5.938;2022-12-26T18:13:01;8.74;63.11
65876;HTU21D;52657;51.128;5.938;2022-12-26T18:15:29;8.68;63.28
65876;HTU21D;52657;51.128;5.938;2022-12-26T18:17:56;8.65;63.68
65876;HTU21D;52657;51.128;5.938;2022-12-26T18:20:28;8.53;64.04
65876;HTU21D;52657;51.128;5.938;2022-12-26T18:22:55;8.51;64.50
65876;HTU21D;52657;51.128;5.938;2022-12-26T18:25:23;8.49;64.28
65876;HTU21D;52657;51.128;5.938;2022-12-26T18:27:50;8.44;64.37
65876;HTU21D;52657;51.128;5.938;2022-12-26T18:30:25;8.41;64.40
65876;HTU21D;52657;51.128;5.938;2022-12-26T18:32:52;8.41;64.25
65876;HTU21D;52657;51.128;5.938;2022-12-26T18:35:18;8.38;64.12
65876;HTU21D;52657;51.128;5.938;2022-12-26T18:37:51;8.35;63.92
65876;HTU21D;52657;51.128;5.938;2022-12-26T18:42:58;8.13;64.26
65876;HTU21D;52657;51.128;5.938;2022-12-26T18:45:24;8.04;64.36
65876;HTU21D;52657;51.128;5.938;2022-12-26T18:47:55;7.98;64.60
65876;HTU21D;52657;51.128;5.938;2022-12-26T18:50:21;7.98;64.74
65876;HTU21D;52657;51.128;5.938;2022-12-26T18:52:48;7.96;64.65
65876;HTU21D;52657;51.128;5.938;2022-12-26T18:55:14;7.96;64.54
65876;HTU21D;52657;51.128;5.938;2022-12-26T18:57:39;7.90;64.51
65876;HTU21D;52657;51.128;5.938;2022-12-26T19:00:09;7.83;64.66
65876;HTU21D;52657;51.128;5.938;2022-12-26T19:02:37;7.76;64.84
65876;HTU21D;52657;51.128;5.938;2022-12-26T19:05:29;7.77;64.86
65876;HTU21D;52657;51.128;5.938;2022-12-26T19:07:56;7.76;64.78
65876;HTU21D;52657;51.128;5.938;2022-12-26T19:10:27;7.75;64.63
65876;HTU21D;52657;51.128;5.938;2022-12-26T19:12:57;7.73;64.44
65876;HTU21D;52657;51.128;5.938;2022-12-26T19:15:30;7.65;64.66
65876;HTU21D;52657;51.128;5.938;2022-12-26T19:17:56;7.62;64.60
65876;HTU21D;52657;51.128;5.938;2022-12-26T19:20:24;7.59;64.69
65876;HTU21D;52657;51.128;5.938;2022-12-26T19:22:55;7.53;64.76
65876;HTU21D;52657;51.128;5.938;2022-12-26T19:25:23;7.50;64.82
65876;HTU21D;52657;51.128;5.938;2022-12-26T19:27:52;7.50;64.82
65876;HTU21D;52657;51.128;5.938;2022-12-26T19:30:21;7.47;64.60
65876;HTU21D;52657;51.128;5.938;2022-12-26T19:32:52;7.40;64.78
65876;HTU21D;52657;51.128;5.938;2022-12-26T19:35:18;7.41;64.86
65876;HTU21D;52657;51.128;5.938;2022-12-26T19:37:48;7.45;64.72
65876;HTU21D;52657;51.128;5.938;2022-12-26T19:40:13;7.42;64.59
65876;HTU21D;52657;51.128;5.938;2022-12-26T19:42:40;7.42;64.53
65876;HTU21D;52657;51.128;5.938;2022-12-26T19:45:07;7.39;64.50
65876;HTU21D;52657;51.128;5.938;2022-12-26T19:47:34;7.34;64.72
65876;HTU21D;52657;51.128;5.938;2022-12-26T19:50:02;7.35;64.65